createdAt,value
2023-08-21T00:00:00.608Z,460.89
2023-08-21T00:00:11.618Z,460.88
2023-08-21T00:00:22.627Z,460.86
2023-08-21T00:00:34.649Z,460.83
2023-08-21T00:00:46.691Z,460.82
2023-08-21T00:00:58.594Z,460.85
2023-08-21T00:01:10.645Z,460.83
2023-08-21T00:01:21.585Z,460.82
2023-08-21T00:01:32.613Z,460.80
2023-08-21T00:01:43.599Z,460.78
2023-08-21T00:01:54.599Z,460.90
2023-08-21T00:02:05.618Z,460.87
2023-08-21T00:03:34.644Z,460.74
2023-08-21T00:03:45.704Z,460.72
2023-08-21T00:03:57.662Z,460.71
2023-08-21T00:04:09.724Z,460.67
2023-08-21T00:04:21.615Z,460.67
2023-08-21T00:05:44.605Z,460.74
2023-08-21T00:05:56.616Z,460.82
2023-08-21T00:06:08.613Z,460.90
2023-08-21T00:06:20.585Z,460.92
2023-08-21T00:06:31.601Z,460.96
2023-08-21T00:06:42.617Z,461.03
2023-08-21T00:06:53.600Z,460.99
2023-08-21T00:07:05.645Z,460.95
2023-08-21T00:07:17.603Z,461.10
2023-08-21T00:07:28.608Z,461.22
2023-08-21T00:07:40.608Z,461.29
2023-08-21T00:07:52.577Z,461.26
2023-08-21T00:08:03.584Z,461.25
2023-08-21T00:08:14.581Z,461.28
2023-08-21T00:09:35.673Z,461.30
2023-08-21T00:09:47.549Z,461.32
2023-08-21T00:12:45.649Z,461.05
2023-08-21T00:12:57.634Z,461.08
2023-08-21T00:13:08.618Z,461.10
2023-08-21T00:14:34.643Z,461.01
2023-08-21T00:14:46.632Z,461.04
2023-08-21T00:14:58.620Z,461.06
2023-08-21T00:15:10.592Z,461.10
2023-08-21T00:15:21.588Z,461.11
2023-08-21T00:16:42.671Z,461.25
2023-08-21T00:16:54.600Z,461.26
2023-08-21T00:17:05.548Z,461.24
2023-08-21T00:17:16.545Z,461.25
2023-08-21T00:17:27.652Z,461.38
2023-08-21T00:17:38.574Z,461.29
2023-08-21T00:17:49.668Z,461.34
2023-08-21T00:18:01.682Z,461.20
2023-08-21T00:18:13.601Z,461.18
2023-08-21T00:18:24.604Z,461.20
2023-08-21T00:18:36.594Z,461.19
2023-08-21T00:21:20.654Z,461.64
2023-08-21T00:21:32.623Z,461.65
2023-08-21T00:21:44.607Z,461.68
2023-08-21T00:21:55.656Z,461.73
2023-08-21T00:22:07.658Z,461.79
2023-08-21T00:22:19.620Z,461.79
2023-08-21T00:22:31.586Z,461.81
2023-08-21T00:22:42.585Z,461.89
2023-08-21T00:22:53.596Z,461.88
2023-08-21T00:23:04.636Z,461.88
2023-08-21T00:23:16.595Z,461.92
2023-08-21T00:23:28.585Z,461.97
2023-08-21T00:23:51.326Z,461.96
2023-08-21T00:23:52.604Z,461.96
2023-08-21T00:24:03.624Z,461.97
2023-08-21T00:24:15.615Z,461.95
2023-08-21T00:24:26.613Z,461.97
2023-08-21T00:24:38.616Z,462.02
2023-08-21T00:25:00.601Z,462.00
2023-08-21T00:25:11.593Z,462.04
2023-08-21T00:25:22.617Z,462.05
2023-08-21T00:25:34.596Z,462.07
2023-08-21T00:25:46.586Z,462.04
2023-08-21T00:25:57.602Z,462.04
2023-08-21T00:26:08.600Z,462.05
2023-08-21T00:26:19.619Z,462.05
2023-08-21T00:26:30.604Z,462.04
2023-08-21T00:26:42.587Z,462.01
2023-08-21T00:26:53.574Z,461.98
2023-08-21T00:27:04.570Z,461.97
2023-08-21T00:27:15.580Z,461.93
2023-08-21T00:27:26.570Z,461.91
2023-08-21T00:27:37.574Z,461.92
2023-08-21T00:27:48.579Z,461.89
2023-08-21T00:27:59.596Z,461.87
2023-08-21T00:28:10.574Z,461.86
2023-08-21T00:30:09.658Z,461.78
2023-08-21T00:30:21.567Z,461.83
2023-08-21T00:30:32.605Z,461.83
2023-08-21T00:30:43.629Z,461.84
2023-08-21T00:30:54.587Z,461.82
2023-08-21T00:32:16.639Z,461.97
2023-08-21T00:32:28.702Z,462.01
2023-08-21T00:32:41.024Z,462.07
2023-08-21T00:32:51.627Z,462.08
2023-08-21T00:33:03.701Z,462.09
2023-08-21T00:35:36.603Z,462.34
2023-08-21T00:35:48.612Z,462.32
2023-08-21T00:36:00.596Z,462.30
2023-08-21T00:36:11.579Z,462.25
2023-08-21T00:36:22.583Z,462.22
2023-08-21T00:38:52.645Z,462.05
2023-08-21T00:39:04.620Z,462.08
2023-08-21T00:39:16.598Z,462.09
2023-08-21T00:39:27.599Z,462.06
2023-08-21T00:39:38.623Z,462.08
2023-08-21T00:39:58.334Z,462.09
2023-08-21T00:40:02.646Z,462.09
2023-08-21T00:40:14.607Z,462.08
2023-08-21T00:42:10.583Z,462.28
2023-08-21T00:42:21.621Z,462.33
2023-08-21T00:42:33.636Z,462.31
2023-08-21T00:42:45.635Z,462.27
2023-08-21T00:42:57.635Z,462.30
2023-08-21T00:45:23.611Z,462.33
2023-08-21T00:45:35.628Z,462.37
2023-08-21T00:47:01.597Z,462.44
2023-08-21T00:47:13.618Z,462.38
2023-08-21T00:47:25.611Z,462.40
2023-08-21T00:47:36.640Z,462.44
2023-08-21T00:47:48.654Z,462.48
2023-08-21T00:48:00.715Z,462.46
2023-08-21T00:48:12.614Z,462.48
2023-08-21T00:48:23.586Z,462.47
2023-08-21T00:48:34.598Z,462.47
2023-08-21T00:48:45.591Z,462.46
2023-08-21T00:48:56.606Z,462.43
2023-08-21T00:49:08.578Z,462.44
2023-08-21T00:49:19.582Z,462.45
2023-08-21T00:49:30.590Z,462.46
2023-08-21T00:49:41.594Z,462.53
2023-08-21T00:53:28.642Z,462.63
2023-08-21T00:53:40.567Z,462.70
2023-08-21T00:53:51.581Z,462.74
2023-08-21T00:54:02.611Z,462.68
2023-08-21T00:54:13.619Z,462.64
2023-08-21T00:54:25.610Z,462.72
2023-08-21T00:54:37.572Z,462.67
2023-08-21T00:55:55.583Z,462.52
2023-08-21T00:56:06.605Z,462.47
2023-08-21T00:58:55.658Z,462.30
2023-08-21T00:59:07.629Z,462.32
2023-08-21T00:59:19.593Z,462.36
2023-08-21T00:59:30.601Z,462.33
2023-08-21T00:59:41.614Z,462.35
2023-08-21T00:59:53.594Z,462.42
2023-08-21T01:00:04.585Z,462.42
2023-08-21T01:01:30.739Z,462.49
2023-08-21T01:01:42.691Z,462.52
2023-08-21T01:01:54.625Z,462.51
2023-08-21T01:03:33.600Z,462.89
2023-08-21T01:03:45.626Z,462.96
2023-08-21T01:03:57.617Z,462.96
2023-08-21T01:04:08.597Z,463.04
2023-08-21T01:05:33.638Z,463.13
2023-08-21T01:05:44.684Z,463.06
2023-08-21T01:05:56.559Z,463.07
2023-08-21T01:06:07.557Z,463.04
2023-08-21T01:06:18.555Z,463.00
2023-08-21T01:06:29.657Z,462.96
2023-08-21T01:06:41.641Z,462.95
2023-08-21T01:06:53.627Z,462.90
2023-08-21T01:07:05.578Z,462.86
2023-08-21T01:07:16.589Z,462.85
2023-08-21T01:07:27.585Z,462.85
2023-08-21T01:08:48.584Z,462.74
2023-08-21T01:08:59.590Z,462.67
2023-08-21T01:09:10.594Z,462.68
2023-08-21T01:09:21.605Z,462.69
2023-08-21T01:09:32.628Z,462.64
2023-08-21T01:11:15.597Z,462.70
2023-08-21T01:11:26.628Z,462.75
2023-08-21T01:19:44.612Z,462.45
2023-08-21T01:19:56.636Z,462.51
2023-08-21T01:22:45.583Z,462.62
2023-08-21T01:22:56.584Z,462.58
2023-08-21T01:24:14.654Z,462.52
2023-08-21T01:24:26.638Z,462.50
2023-08-21T01:24:38.643Z,462.50
2023-08-21T01:24:50.617Z,462.39
2023-08-21T01:25:01.608Z,462.47
2023-08-21T01:25:12.618Z,462.41
2023-08-21T01:27:28.620Z,462.32
2023-08-21T01:27:40.606Z,462.29
2023-08-21T01:27:52.585Z,462.30
2023-08-21T01:28:03.584Z,462.27
2023-08-21T01:28:15.583Z,462.31
2023-08-21T01:31:05.557Z,462.39
2023-08-21T01:31:16.649Z,462.43
2023-08-21T01:31:27.632Z,462.50
2023-08-21T01:31:38.573Z,462.57
2023-08-21T01:31:49.723Z,462.72
2023-08-21T01:33:07.617Z,462.60
2023-08-21T01:36:27.628Z,462.32
2023-08-21T01:36:39.646Z,462.33
2023-08-21T01:36:51.638Z,462.34
2023-08-21T01:37:03.619Z,462.34
2023-08-21T01:37:15.601Z,462.33
2023-08-21T01:40:49.607Z,462.47
2023-08-21T01:41:01.615Z,462.48
2023-08-21T01:41:13.594Z,462.50
2023-08-21T01:41:24.596Z,462.52
2023-08-21T01:41:35.599Z,462.52
2023-08-21T01:41:47.578Z,462.54
2023-08-21T01:46:24.558Z,463.12
2023-08-21T01:46:35.602Z,463.13
2023-08-21T01:48:03.624Z,463.10
2023-08-21T01:48:15.649Z,463.07
2023-08-21T01:48:26.565Z,463.07
2023-08-21T01:48:37.558Z,463.04
2023-08-21T01:48:48.646Z,463.07
2023-08-21T01:49:00.635Z,463.07
2023-08-21T01:49:12.596Z,463.03
2023-08-21T01:49:23.580Z,462.96
2023-08-21T01:50:50.568Z,462.87
2023-08-21T01:51:01.618Z,462.91
2023-08-21T01:51:13.728Z,462.88
2023-08-21T01:51:25.678Z,462.90
2023-08-21T01:51:36.645Z,462.89
2023-08-21T01:51:48.689Z,462.87
2023-08-21T01:52:00.660Z,462.88
2023-08-21T01:52:11.575Z,462.89
2023-08-21T01:52:22.649Z,462.90
2023-08-21T01:52:34.628Z,462.83
2023-08-21T01:52:46.604Z,462.88
2023-08-21T01:52:57.604Z,462.92
2023-08-21T01:53:08.627Z,462.91
2023-08-21T01:56:26.563Z,462.91
2023-08-21T01:56:37.613Z,462.96
2023-08-21T01:56:49.658Z,462.99
2023-08-21T01:57:00.599Z,463.01
2023-08-21T01:57:12.603Z,462.99
2023-08-21T01:57:23.613Z,462.98
2023-08-21T01:57:35.624Z,463.04
2023-08-21T01:57:47.594Z,463.10
2023-08-21T01:57:59.601Z,463.12
2023-08-21T01:58:11.601Z,463.17
2023-08-21T02:00:44.577Z,463.42
2023-08-21T02:00:55.632Z,463.47
2023-08-21T02:01:07.683Z,463.54
2023-08-21T02:01:18.609Z,463.51
2023-08-21T02:01:30.650Z,463.52
2023-08-21T02:01:41.649Z,463.54
2023-08-21T02:01:52.611Z,463.53
2023-08-21T02:02:04.694Z,463.57
2023-08-21T02:03:23.656Z,463.57
2023-08-21T02:03:34.666Z,463.56
2023-08-21T02:03:45.621Z,463.56
2023-08-21T02:03:57.596Z,463.56
2023-08-21T02:04:09.600Z,463.56
2023-08-21T02:04:20.613Z,463.53
2023-08-21T02:04:32.577Z,463.51
2023-08-21T02:04:43.560Z,463.51
2023-08-21T02:04:54.579Z,463.47
2023-08-21T02:07:32.629Z,463.29
2023-08-21T02:07:44.613Z,463.28
2023-08-21T02:07:56.586Z,463.31
2023-08-21T02:08:08.588Z,463.30
2023-08-21T02:08:19.606Z,463.34
2023-08-21T02:13:06.621Z,464.27
2023-08-21T02:13:18.606Z,464.32
2023-08-21T02:13:30.604Z,464.32
2023-08-21T02:13:42.580Z,464.33
2023-08-21T02:15:08.653Z,464.32
2023-08-21T02:15:20.622Z,464.33
2023-08-21T02:15:32.592Z,464.37
2023-08-21T02:15:43.678Z,464.37
2023-08-21T02:15:54.629Z,464.40
2023-08-21T02:16:05.583Z,464.41
2023-08-21T02:16:16.605Z,464.42
2023-08-21T02:16:27.598Z,464.42
2023-08-21T02:16:38.607Z,464.41
2023-08-21T02:16:50.598Z,464.42
2023-08-21T02:17:02.579Z,464.42
2023-08-21T02:17:13.554Z,464.44
2023-08-21T02:17:24.641Z,464.47
2023-08-21T02:17:36.669Z,464.47
2023-08-21T02:17:47.702Z,464.43
2023-08-21T02:17:59.682Z,464.41
2023-08-21T02:18:10.678Z,464.38
2023-08-21T02:23:33.551Z,464.25
2023-08-21T02:23:44.602Z,464.26
2023-08-21T02:25:06.654Z,464.24
2023-08-21T02:25:18.648Z,464.27
2023-08-21T02:25:30.610Z,464.25
2023-08-21T02:25:42.585Z,464.24
2023-08-21T02:25:53.592Z,464.24
2023-08-21T02:26:04.598Z,464.22
2023-08-21T02:26:15.611Z,464.27
2023-08-21T02:26:30.693Z,464.31
2023-08-21T02:26:38.603Z,464.33
2023-08-21T02:26:49.583Z,464.34
2023-08-21T02:27:00.612Z,464.35
2023-08-21T02:28:27.647Z,464.43
2023-08-21T02:28:39.573Z,464.44
2023-08-21T02:28:50.601Z,464.43
2023-08-21T02:29:01.594Z,464.49
2023-08-21T02:29:12.599Z,464.52
2023-08-21T02:29:24.593Z,464.53
2023-08-21T02:29:35.575Z,464.50
2023-08-21T02:29:46.572Z,464.53
2023-08-21T02:29:58.573Z,464.56
2023-08-21T02:30:09.578Z,464.56
2023-08-21T02:30:20.576Z,464.57
2023-08-21T02:30:32.576Z,464.57
2023-08-21T02:30:43.602Z,464.50
2023-08-21T02:30:54.611Z,464.47
2023-08-21T02:32:17.619Z,464.45
2023-08-21T02:32:28.588Z,464.46
2023-08-21T02:32:39.983Z,464.43
2023-08-21T02:34:00.630Z,464.33
2023-08-21T02:34:12.620Z,464.33
2023-08-21T02:34:24.592Z,464.32
2023-08-21T02:34:35.593Z,464.28
2023-08-21T02:34:46.592Z,464.27
2023-08-21T02:34:57.605Z,464.24
2023-08-21T02:35:09.606Z,464.25
2023-08-21T02:35:21.577Z,464.27
2023-08-21T02:35:32.553Z,464.23
2023-08-21T02:35:43.573Z,464.20
2023-08-21T02:35:55.581Z,464.21
2023-08-21T02:36:07.589Z,464.20
2023-08-21T02:36:18.595Z,464.19
2023-08-21T02:36:30.604Z,464.18
2023-08-21T02:36:41.601Z,464.15
2023-08-21T02:36:52.590Z,464.15
2023-08-21T02:37:03.599Z,464.17
2023-08-21T02:41:24.635Z,463.72
2023-08-21T02:42:50.604Z,463.69
2023-08-21T02:43:02.586Z,463.68
2023-08-21T02:43:14.590Z,463.71
2023-08-21T02:44:39.637Z,463.85
2023-08-21T02:44:51.606Z,463.91
2023-08-21T02:45:03.596Z,463.95
2023-08-21T02:45:14.587Z,463.93
2023-08-21T02:45:25.597Z,463.93
2023-08-21T02:45:36.608Z,463.99
2023-08-21T02:45:47.593Z,463.98
2023-08-21T02:45:58.588Z,463.99
2023-08-21T02:47:42.659Z,464.19
2023-08-21T02:47:53.676Z,464.21
2023-08-21T02:48:05.734Z,464.22
2023-08-21T02:55:34.652Z,464.74
2023-08-21T02:55:46.704Z,464.75
2023-08-21T03:00:46.625Z,465.25
2023-08-21T03:00:57.709Z,465.25
2023-08-21T03:01:09.686Z,465.29
2023-08-21T03:01:20.622Z,465.32
2023-08-21T03:01:31.646Z,465.34
2023-08-21T03:01:43.674Z,465.33
2023-08-21T03:03:12.904Z,465.32
2023-08-21T03:04:31.622Z,465.25
2023-08-21T03:04:43.618Z,465.27
2023-08-21T03:04:55.594Z,465.26
2023-08-21T03:05:06.592Z,465.27
2023-08-21T03:05:17.602Z,465.28
2023-08-21T03:07:32.568Z,465.19
2023-08-21T03:07:44.595Z,465.21
2023-08-21T03:07:55.603Z,465.22
2023-08-21T03:08:06.599Z,465.26
2023-08-21T03:10:32.631Z,465.34
2023-08-21T03:10:44.629Z,465.34
2023-08-21T03:10:56.596Z,465.34
2023-08-21T03:11:07.579Z,465.32
2023-08-21T03:11:18.573Z,465.36
2023-08-21T03:11:29.598Z,465.37
2023-08-21T03:11:40.593Z,465.43
2023-08-21T03:11:51.596Z,465.38
2023-08-21T03:12:02.594Z,465.38
2023-08-21T03:12:13.609Z,465.42
2023-08-21T03:12:24.614Z,465.41
2023-08-21T03:12:35.598Z,465.43
2023-08-21T03:12:46.585Z,465.43
2023-08-21T03:12:57.573Z,465.45
2023-08-21T03:13:08.618Z,465.47
2023-08-21T03:13:20.642Z,465.49
2023-08-21T03:13:31.630Z,465.53
2023-08-21T03:13:43.590Z,465.54
2023-08-21T03:13:54.590Z,465.60
2023-08-21T03:14:05.610Z,465.64
2023-08-21T03:14:16.605Z,465.67
2023-08-21T03:14:27.630Z,465.70
2023-08-21T03:14:39.619Z,465.74
2023-08-21T03:17:05.556Z,466.09
2023-08-21T03:17:16.587Z,466.12
2023-08-21T03:17:27.605Z,466.15
2023-08-21T03:17:38.623Z,466.19
2023-08-21T03:17:50.656Z,466.24
2023-08-21T03:18:01.629Z,466.26
2023-08-21T03:19:26.617Z,466.46
2023-08-21T03:19:38.606Z,466.49
2023-08-21T03:19:49.604Z,466.51
2023-08-21T03:20:00.607Z,466.57
2023-08-21T03:20:11.609Z,466.60
2023-08-21T03:20:23.603Z,466.62
2023-08-21T03:20:34.612Z,466.68
2023-08-21T03:20:45.606Z,466.66
2023-08-21T03:20:56.606Z,466.70
2023-08-21T03:25:56.588Z,466.75
2023-08-21T03:26:08.685Z,466.79
2023-08-21T03:26:19.577Z,466.84
2023-08-21T03:26:30.570Z,466.85
2023-08-21T03:26:41.588Z,466.90
2023-08-21T03:26:53.577Z,466.91
2023-08-21T03:27:04.567Z,466.97
2023-08-21T03:27:15.570Z,466.99
2023-08-21T03:27:26.589Z,467.01
2023-08-21T03:27:37.614Z,467.02
2023-08-21T03:27:49.595Z,467.01
2023-08-21T03:28:00.605Z,467.06
2023-08-21T03:28:11.592Z,467.05
2023-08-21T03:28:22.581Z,467.06
2023-08-21T03:28:33.570Z,467.05
2023-08-21T03:28:44.577Z,467.06
2023-08-21T03:28:55.592Z,467.04
2023-08-21T03:29:06.593Z,467.03
2023-08-21T03:31:32.633Z,466.75
2023-08-21T03:31:44.629Z,466.70
2023-08-21T03:31:56.622Z,466.68
2023-08-21T03:32:08.616Z,466.66
2023-08-21T03:32:19.630Z,466.62
2023-08-21T03:32:31.608Z,466.62
2023-08-21T03:32:43.599Z,466.60
2023-08-21T03:32:54.697Z,466.57
2023-08-21T03:33:06.649Z,466.57
2023-08-21T03:33:18.682Z,466.58
2023-08-21T03:33:29.603Z,466.57
2023-08-21T03:37:46.670Z,466.66
2023-08-21T03:37:58.606Z,466.69
2023-08-21T03:38:09.612Z,466.68
2023-08-21T03:39:33.822Z,466.67
2023-08-21T03:39:44.601Z,466.73
2023-08-21T03:39:56.602Z,466.73
2023-08-21T03:40:08.592Z,466.73
2023-08-21T03:41:39.587Z,466.83
2023-08-21T03:41:51.544Z,466.88
2023-08-21T03:42:03.513Z,466.88
2023-08-21T03:42:15.484Z,466.89
2023-08-21T03:42:26.612Z,466.92
2023-08-21T03:42:38.707Z,466.96
2023-08-21T03:42:49.594Z,466.99
2023-08-21T03:45:25.496Z,467.16
2023-08-21T03:45:37.514Z,467.21
2023-08-21T03:48:24.514Z,467.23
2023-08-21T03:48:36.525Z,467.26
2023-08-21T03:48:48.501Z,467.24
2023-08-21T03:49:00.479Z,467.27
2023-08-21T03:50:20.516Z,467.31
2023-08-21T03:50:32.504Z,467.30
2023-08-21T03:50:44.509Z,467.29
2023-08-21T03:50:55.453Z,467.29
2023-08-21T03:51:06.507Z,467.32
2023-08-21T03:51:18.501Z,467.31
2023-08-21T03:51:29.465Z,467.32
2023-08-21T03:51:40.515Z,467.28
2023-08-21T03:51:52.490Z,467.26
2023-08-21T03:52:03.533Z,467.26
2023-08-21T03:52:15.533Z,467.24
2023-08-21T03:54:21.502Z,466.98
2023-08-21T03:54:33.577Z,467.01
2023-08-21T03:55:54.483Z,466.84
2023-08-21T03:56:06.502Z,466.88
2023-08-21T03:56:18.494Z,466.83
2023-08-21T03:56:29.449Z,466.84
2023-08-21T03:56:40.564Z,466.79
2023-08-21T03:57:58.485Z,466.66
2023-08-21T03:58:10.483Z,466.65
2023-08-21T03:58:21.450Z,466.63
2023-08-21T03:58:32.517Z,466.61
2023-08-21T03:58:44.469Z,466.56
2023-08-21T03:58:55.540Z,466.55
2023-08-21T03:59:07.530Z,466.54
2023-08-21T03:59:19.475Z,466.53
2023-08-21T03:59:30.443Z,466.50
2023-08-21T03:59:41.497Z,466.49
2023-08-21T03:59:53.516Z,466.51
2023-08-21T04:00:05.538Z,466.53
2023-08-21T04:01:30.546Z,466.68
2023-08-21T04:01:42.601Z,466.73
2023-08-21T04:01:54.556Z,466.77
2023-08-21T04:02:06.490Z,466.79
2023-08-21T04:02:17.461Z,466.80
2023-08-21T04:02:28.482Z,466.82
2023-08-21T04:02:39.650Z,466.87
2023-08-21T04:02:50.470Z,466.87
2023-08-21T04:03:01.499Z,466.85
2023-08-21T04:03:12.512Z,466.88
2023-08-21T04:03:32.143Z,466.90
2023-08-21T04:03:35.574Z,466.88
2023-08-21T04:03:46.563Z,466.88
2023-08-21T04:03:57.459Z,466.92
2023-08-21T04:04:08.499Z,466.88
2023-08-21T04:04:19.450Z,466.89
2023-08-21T04:04:42.490Z,466.89
2023-08-21T04:04:54.479Z,466.88
2023-08-21T04:05:06.475Z,466.85
2023-08-21T04:05:18.472Z,466.86
2023-08-21T04:05:29.440Z,466.82
2023-08-21T04:07:45.555Z,466.65
2023-08-21T04:07:57.533Z,466.67
2023-08-21T04:08:09.523Z,466.66
2023-08-21T04:10:12.489Z,466.53
2023-08-21T04:10:24.486Z,466.51
2023-08-21T04:10:35.455Z,466.47
2023-08-21T04:10:46.526Z,466.46
2023-08-21T04:10:58.518Z,466.42
2023-08-21T04:11:10.502Z,466.42
2023-08-21T04:13:45.539Z,466.20
2023-08-21T04:13:57.536Z,466.24
2023-08-21T04:14:09.512Z,466.25
2023-08-21T04:14:21.512Z,466.23
2023-08-21T04:14:33.484Z,466.22
2023-08-21T04:14:44.443Z,466.24
2023-08-21T04:14:55.510Z,466.23
2023-08-21T04:15:07.484Z,466.22
2023-08-21T04:15:19.471Z,466.24
2023-08-21T04:15:31.485Z,466.25
2023-08-21T04:15:43.459Z,466.28
2023-08-21T04:15:55.901Z,466.27
2023-08-21T04:16:06.515Z,466.26
2023-08-21T04:16:18.589Z,466.27
2023-08-21T04:16:30.488Z,466.26
2023-08-21T04:16:41.565Z,466.27
2023-08-21T04:16:53.481Z,466.26
2023-08-21T04:17:04.536Z,466.28
2023-08-21T04:17:16.543Z,466.26
2023-08-21T04:17:28.601Z,466.25
2023-08-21T04:17:40.484Z,466.27
2023-08-21T04:17:51.496Z,466.22
2023-08-21T04:18:02.545Z,466.21
2023-08-21T04:18:38.820Z,466.16
2023-08-21T04:18:41.804Z,466.13
2023-08-21T04:18:48.488Z,466.10
2023-08-21T04:18:59.457Z,466.09
2023-08-21T04:19:10.449Z,466.03
2023-08-21T04:19:21.518Z,466.02
2023-08-21T04:19:33.490Z,465.98
2023-08-21T04:19:44.489Z,465.97
2023-08-21T04:19:56.468Z,465.94
2023-08-21T04:20:07.537Z,465.90
2023-08-21T04:20:19.521Z,465.85
2023-08-21T04:20:31.489Z,465.85
2023-08-21T04:20:42.443Z,465.82
2023-08-21T04:20:53.504Z,465.79
2023-08-21T04:21:05.491Z,465.73
2023-08-21T04:21:17.472Z,465.73
2023-08-21T04:21:28.448Z,465.73
2023-08-21T04:21:39.495Z,465.70
2023-08-21T04:21:51.491Z,465.67
2023-08-21T04:22:03.495Z,465.63
2023-08-21T04:22:14.515Z,465.62
2023-08-21T04:22:26.490Z,465.61
2023-08-21T04:22:38.857Z,465.58
2023-08-21T04:22:49.511Z,465.58
2023-08-21T04:23:01.523Z,465.58
2023-08-21T04:23:13.481Z,465.57
2023-08-21T04:26:46.478Z,465.37
2023-08-21T04:26:58.491Z,465.37
2023-08-21T04:27:10.489Z,465.38
2023-08-21T04:27:21.481Z,465.36
2023-08-21T04:27:33.487Z,465.38
2023-08-21T04:27:45.479Z,465.37
2023-08-21T04:27:57.469Z,465.36
2023-08-21T04:28:08.540Z,465.38
2023-08-21T04:29:27.507Z,465.31
2023-08-21T04:29:39.505Z,465.31
2023-08-21T04:29:51.478Z,465.32
2023-08-21T04:30:02.442Z,465.31
2023-08-21T04:30:13.529Z,465.31
2023-08-21T04:30:25.508Z,465.30
2023-08-21T04:30:37.509Z,465.28
2023-08-21T04:30:49.476Z,465.31
2023-08-21T04:31:00.550Z,465.26
2023-08-21T04:31:12.535Z,465.27
2023-08-21T04:31:24.538Z,465.25
2023-08-21T04:31:36.544Z,465.25
2023-08-21T04:31:48.551Z,465.24
2023-08-21T04:31:59.473Z,465.20
2023-08-21T04:32:10.459Z,465.20
2023-08-21T04:32:21.539Z,465.18
2023-08-21T04:32:33.566Z,465.16
2023-08-21T04:32:44.599Z,465.14
2023-08-21T04:32:56.572Z,465.12
2023-08-21T04:33:07.573Z,465.08
2023-08-21T04:33:18.440Z,465.05
2023-08-21T04:33:29.520Z,465.05
2023-08-21T04:33:41.506Z,465.00
2023-08-21T04:33:53.474Z,464.99
2023-08-21T04:34:04.526Z,464.98
2023-08-21T04:34:16.522Z,464.97
2023-08-21T04:40:29.548Z,464.94
2023-08-21T04:40:41.551Z,464.96
2023-08-21T04:40:53.521Z,464.94
2023-08-21T04:41:05.481Z,464.94
2023-08-21T04:41:16.488Z,464.94
2023-08-21T04:41:27.447Z,464.95
2023-08-21T04:41:38.461Z,464.93
2023-08-21T04:41:49.509Z,464.91
2023-08-21T04:42:01.488Z,464.90
2023-08-21T04:42:12.457Z,464.90
2023-08-21T04:42:23.522Z,464.89
2023-08-21T04:42:35.655Z,464.87
2023-08-21T04:42:47.482Z,464.84
2023-08-21T04:42:59.460Z,464.83
2023-08-21T04:43:10.534Z,464.80
2023-08-21T04:43:22.532Z,464.80
2023-08-21T04:43:34.526Z,464.78
2023-08-21T04:43:46.539Z,464.75
2023-08-21T04:43:58.511Z,464.71
2023-08-21T04:44:10.558Z,464.71
2023-08-21T04:44:22.524Z,464.68
2023-08-21T04:44:34.503Z,464.64
2023-08-21T04:44:46.486Z,464.64
2023-08-21T04:44:58.475Z,464.60
2023-08-21T04:45:09.449Z,464.59
2023-08-21T04:45:20.505Z,464.53
2023-08-21T04:46:39.478Z,464.44
2023-08-21T04:46:50.500Z,464.43
2023-08-21T04:47:02.492Z,464.46
2023-08-21T04:47:13.439Z,464.43
2023-08-21T04:47:24.656Z,464.42
2023-08-21T04:47:36.487Z,464.42
2023-08-21T04:50:02.557Z,464.34
2023-08-21T04:50:14.555Z,464.36
2023-08-21T04:50:25.461Z,464.39
2023-08-21T04:50:36.521Z,464.39
2023-08-21T04:50:48.568Z,464.37
2023-08-21T04:51:00.532Z,464.39
2023-08-21T04:51:12.516Z,464.38
2023-08-21T04:51:24.482Z,464.40
2023-08-21T04:51:36.474Z,464.39
2023-08-21T04:51:48.480Z,464.41
2023-08-21T04:52:00.470Z,464.39
2023-08-21T04:52:11.528Z,464.41
2023-08-21T04:52:23.494Z,464.37
2023-08-21T04:54:26.504Z,464.24
2023-08-21T04:54:37.525Z,464.22
2023-08-21T04:55:59.518Z,464.13
2023-08-21T04:56:11.519Z,464.17
2023-08-21T04:56:23.515Z,464.16
2023-08-21T04:56:35.499Z,464.14
2023-08-21T04:56:46.457Z,464.13
2023-08-21T04:56:57.536Z,464.13
2023-08-21T04:57:09.526Z,464.13
2023-08-21T04:57:21.499Z,464.13
2023-08-21T04:57:33.473Z,464.13
2023-08-21T04:57:44.445Z,464.13
2023-08-21T04:57:55.457Z,464.10
2023-08-21T04:59:21.501Z,464.06
2023-08-21T04:59:33.519Z,464.05
2023-08-21T04:59:45.524Z,464.07
2023-08-21T05:01:08.546Z,464.05
2023-08-21T05:01:19.614Z,464.04
2023-08-21T05:01:31.571Z,464.06
2023-08-21T05:01:45.498Z,464.05
2023-08-21T05:01:54.571Z,464.05
2023-08-21T05:05:32.535Z,464.03
2023-08-21T05:05:44.546Z,464.02
2023-08-21T05:05:56.530Z,464.03
2023-08-21T05:06:08.503Z,464.01
2023-08-21T05:06:20.488Z,463.97
2023-08-21T05:06:31.489Z,463.95
2023-08-21T05:06:43.486Z,463.95
2023-08-21T05:06:54.445Z,463.93
2023-08-21T05:07:05.500Z,463.94
2023-08-21T05:07:17.508Z,463.93
2023-08-21T05:07:30.688Z,463.95
2023-08-21T05:07:41.470Z,463.94
2023-08-21T05:07:52.534Z,463.94
2023-08-21T05:09:14.580Z,463.87
2023-08-21T05:09:26.471Z,463.93
2023-08-21T05:09:37.534Z,463.93
2023-08-21T05:09:49.521Z,463.96
2023-08-21T05:10:01.522Z,463.98
2023-08-21T05:10:13.496Z,464.01
2023-08-21T05:10:25.482Z,464.02
2023-08-21T05:10:36.456Z,464.03
2023-08-21T05:10:47.521Z,464.06
2023-08-21T05:12:08.536Z,464.13
2023-08-21T05:12:19.528Z,464.17
2023-08-21T05:12:40.794Z,464.18
2023-08-21T05:12:43.524Z,464.19
2023-08-21T05:12:55.514Z,464.21
2023-08-21T05:13:07.511Z,464.25
2023-08-21T05:13:19.485Z,464.24
2023-08-21T05:13:30.562Z,464.24
2023-08-21T05:13:42.463Z,464.24
2023-08-21T05:13:53.544Z,464.27
2023-08-21T05:14:05.518Z,464.26
2023-08-21T05:14:17.518Z,464.29
2023-08-21T05:14:29.508Z,464.32
2023-08-21T05:14:41.506Z,464.31
2023-08-21T05:14:53.482Z,464.30
2023-08-21T05:15:05.502Z,464.30
2023-08-21T05:15:17.481Z,464.32
2023-08-21T05:17:43.603Z,464.46
2023-08-21T05:17:54.501Z,464.48
2023-08-21T05:18:05.507Z,464.50
2023-08-21T05:18:16.496Z,464.52
2023-08-21T05:20:57.526Z,464.90
2023-08-21T05:21:09.644Z,464.94
2023-08-21T05:21:20.538Z,464.96
2023-08-21T05:21:32.530Z,465.00
2023-08-21T05:21:44.516Z,465.03
2023-08-21T05:21:56.503Z,465.06
2023-08-21T05:23:58.601Z,465.29
2023-08-21T05:27:36.564Z,465.61
2023-08-21T05:27:47.565Z,465.62
2023-08-21T05:27:59.459Z,465.62
2023-08-21T05:28:10.517Z,465.66
2023-08-21T05:30:55.513Z,465.84
2023-08-21T05:31:07.548Z,465.86
2023-08-21T05:31:18.555Z,465.84
2023-08-21T05:34:15.509Z,465.63
2023-08-21T05:34:27.512Z,465.63
2023-08-21T05:34:39.528Z,465.62
2023-08-21T05:34:51.514Z,465.62
2023-08-21T05:35:03.492Z,465.62
2023-08-21T05:35:15.496Z,465.63
2023-08-21T05:35:27.489Z,465.63
2023-08-21T05:35:38.448Z,465.64
2023-08-21T05:35:49.517Z,465.64
2023-08-21T05:36:01.514Z,465.64
2023-08-21T05:36:13.503Z,465.62
2023-08-21T05:42:06.552Z,465.34
2023-08-21T05:42:18.498Z,465.32
2023-08-21T05:42:30.492Z,465.28
2023-08-21T05:42:41.469Z,465.24
2023-08-21T05:42:52.546Z,465.25
2023-08-21T05:44:11.501Z,465.18
2023-08-21T05:44:23.494Z,465.22
2023-08-21T05:44:35.495Z,465.18
2023-08-21T05:44:46.538Z,465.19
2023-08-21T05:44:58.555Z,465.17
2023-08-21T05:45:10.532Z,465.18
2023-08-21T05:46:29.573Z,465.15
2023-08-21T05:46:41.501Z,465.15
2023-08-21T05:46:53.577Z,465.16
2023-08-21T05:47:04.583Z,465.15
2023-08-21T05:47:16.492Z,465.16
2023-08-21T05:47:28.529Z,465.16
2023-08-21T05:47:39.571Z,465.16
2023-08-21T05:47:51.489Z,465.15
2023-08-21T05:48:03.565Z,465.15
2023-08-21T05:48:15.481Z,465.11
2023-08-21T05:48:26.544Z,465.10
2023-08-21T06:03:27.616Z,464.68